Latest Weather Observations for Little Bay

IDN60801

Issued at 9:33 pm EDT Saturday 28 March 2015 (issued every 30 minutes, with the page automatically refreshed every 10 minutes)

About weather observations | Map of weather stations | Latest weather observations for NSW | Other Formats
Station Details ID: 066051 Name: LITTLE BAY (THE COAST GOLF CLUB) Lat: -33.98 Lon: 151.25 Height: 22.0 m
Data from the previous 72 hours. | See also: Recent months for locations in New South Wales
Date/Time
EDT
Temp
°C
App
Temp
°C
Dew
Point
Rel
Hum
%
Delta-T
°C
Wind Press
QNH
hPa
Press
MSL
hPa
Rain
since 9 am
mm
Dir
 
Spd
km/h
Gust
km/h
Spd
kts
Gust
kts
28/09:30pm - - - - - ESE 11 19 6 10 - - -
28/09:00pm - - - - - ESE 13 17 7 9 - - -
28/08:30pm - - - - - ESE 15 20 8 11 - - -
28/08:00pm - - - - - SE 13 17 7 9 - - -
28/07:30pm - - - - - SE 13 17 7 9 - - -
28/07:00pm - - - - - SE 15 19 8 10 - - -
28/06:30pm - - - - - SE 13 19 7 10 - - -
28/06:00pm - - - - - SE 15 19 8 10 - - -
28/05:30pm - - - - - SE 13 17 7 9 - - -
28/05:00pm - - - - - SE 15 19 8 10 - - -
28/04:30pm - - - - - SE 15 20 8 11 - - -
28/04:00pm - - - - - SSE 17 20 9 11 - - -
28/03:30pm - - - - - SSE 17 22 9 12 - - -
28/03:00pm - - - - - SSE 17 22 9 12 - - -
28/02:30pm - - - - - SSE 17 22 9 12 - - -
28/02:00pm - - - - - SSE 17 22 9 12 - - -
28/01:30pm - - - - - SSE 19 22 10 12 - - -
28/01:00pm - - - - - SSE 17 22 9 12 - - -
28/12:30pm - - - - - S 17 22 9 12 - - -
28/12:00pm - - - - - S 17 22 9 12 - - -
28/11:30am - - - - - S 15 20 8 11 - - -
28/11:00am - - - - - SSW 15 20 8 11 - - -
28/10:30am - - - - - WSW 7 11 4 6 - - -
28/10:00am - - - - - W 9 15 5 8 - - -
28/09:30am - - - - - W 13 15 7 8 - - -
28/09:00am - - - - - W 13 17 7 9 - - -
28/08:30am - - - - - W 13 17 7 9 - - -
28/08:00am - - - - - W 11 15 6 8 - - -
28/07:30am - - - - - W 13 17 7 9 - - -
28/07:00am - - - - - W 11 15 6 8 - - -
28/06:30am - - - - - W 13 17 7 9 - - -
28/06:00am - - - - - W 13 17 7 9 - - -
28/05:30am - - - - - W 15 19 8 10 - - -
28/05:00am - - - - - W 13 20 7 11 - - -
28/04:30am - - - - - WSW 13 19 7 10 - - -
28/04:00am - - - - - W 11 17 6 9 - - -
28/03:30am - - - - - W 13 20 7 11 - - -
28/03:00am - - - - - W 13 20 7 11 - - -
28/02:30am - - - - - WSW 15 26 8 14 - - -
28/02:00am - - - - - WSW 15 24 8 13 - - -
28/01:30am - - - - - WSW 15 24 8 13 - - -
28/01:00am - - - - - WSW 15 22 8 12 - - -
28/12:30am - - - - - WSW 17 26 9 14 - - -
28/12:00am - - - - - WSW 15 22 8 12 - - -
 
Date/Time
EDT
Temp
°C
App
Temp
°C
Dew
Point
Rel
Hum
%
Delta-T
°C
Wind Press
QNH
hPa
Press
MSL
hPa
Rain
since 9 am
mm
Dir
 
Spd
km/h
Gust
km/h
Spd
kts
Gust
kts
27/11:30pm - - - - - W 13 20 7 11 - - -
27/11:00pm - - - - - WSW 15 20 8 11 - - -
27/10:30pm - - - - - WSW 15 26 8 14 - - -
27/10:00pm - - - - - WSW 17 28 9 15 - - -
27/09:30pm - - - - - WSW 9 15 5 8 - - -
27/09:00pm - - - - - W 9 19 5 10 - - -
27/08:30pm - - - - - NNW 9 19 5 10 - - -
27/08:00pm - - - - - N 7 13 4 7 - - -
27/07:30pm - - - - - NNW 6 11 3 6 - - -
27/07:00pm - - - - - N 4 7 2 4 - - -
27/06:30pm - - - - - S 9 13 5 7 - - -
27/06:00pm - - - - - S 4 7 2 4 - - -
27/05:30pm - - - - - SSE 6 11 3 6 - - -
27/05:00pm - - - - - WSW 13 24 7 13 - - -
27/04:30pm - - - - - SSE 6 11 3 6 - - -
27/04:00pm - - - - - SW 15 24 8 13 - - -
27/03:30pm - - - - - SW 15 24 8 13 - - -
27/03:00pm - - - - - W 13 22 7 12 - - -
27/02:30pm - - - - - W 15 26 8 14 - - -
27/02:00pm - - - - - W 13 20 7 11 - - -
27/01:30pm - - - - - W 15 26 8 14 - - -
27/01:00pm - - - - - W 17 26 9 14 - - -
27/12:30pm - - - - - W 19 26 10 14 - - -
27/12:00pm - - - - - WSW 20 32 11 17 - - -
27/11:30am - - - - - W 20 33 11 18 - - -
27/11:00am - - - - - W 19 32 10 17 - - -
27/10:30am - - - - - W 20 32 11 17 - - -
27/10:00am - - - - - W 22 35 12 19 - - -
27/09:30am - - - - - W 20 33 11 18 - - -
27/09:00am - - - - - W 19 30 10 16 - - -
27/08:30am - - - - - W 13 22 7 12 - - -
27/08:00am - - - - - W 17 30 9 16 - - -
27/07:30am - - - - - W 9 19 5 10 - - -
27/07:00am - - - - - W 11 20 6 11 - - -
27/06:30am - - - - - WSW 13 20 7 11 - - -
27/06:00am - - - - - WSW 11 22 6 12 - - -
27/05:30am - - - - - W 11 20 6 11 - - -
27/05:00am - - - - - W 15 22 8 12 - - -
27/04:30am - - - - - W 17 24 9 13 - - -
27/04:00am - - - - - WSW 9 15 5 8 - - -
27/03:30am - - - - - WSW 15 19 8 10 - - -
27/03:00am - - - - - WSW 15 24 8 13 - - -
27/02:30am - - - - - W 20 28 11 15 - - -
27/02:00am - - - - - W 20 28 11 15 - - -
27/01:30am - - - - - WSW 17 24 9 13 - - -
27/01:00am - - - - - WSW 17 28 9 15 - - -
27/12:30am - - - - - SW 22 35 12 19 - - -
27/12:00am - - - - - SW 13 24 7 13 - - -
 
Date/Time
EDT
Temp
°C
App
Temp
°C
Dew
Point
Rel
Hum
%
Delta-T
°C
Wind Press
QNH
hPa
Press
MSL
hPa
Rain
since 9 am
mm
Dir
 
Spd
km/h
Gust
km/h
Spd
kts
Gust
kts
26/11:30pm - - - - - WSW 17 26 9 14 - - -
26/11:00pm - - - - - WSW 20 35 11 19 - - -
26/10:30pm - - - - - W 19 32 10 17 - - -
26/10:00pm - - - - - W 7 17 4 9 - - -
26/09:30pm - - - - - WSW 7 13 4 7 - - -
26/09:00pm - - - - - SW 6 11 3 6 - - -
26/08:30pm - - - - - WSW 6 13 3 7 - - -
26/08:00pm - - - - - NNW 6 9 3 5 - - -
26/07:30pm - - - - - NNE 6 11 3 6 - - -
26/07:00pm - - - - - NE 6 7 3 4 - - -
26/06:30pm - - - - - E 6 7 3 4 - - -
26/06:00pm - - - - - E 7 11 4 6 - - -
26/05:30pm - - - - - E 11 15 6 8 - - -
26/05:00pm - - - - - ENE 13 15 7 8 - - -
26/04:30pm - - - - - E 13 17 7 9 - - -
26/04:00pm - - - - - E 11 15 6 8 - - -
26/03:30pm - - - - - ESE 11 15 6 8 - - -
26/03:00pm - - - - - SE 17 20 9 11 - - -
26/02:30pm - - - - - S 13 19 7 10 - - -
26/02:00pm - - - - - SW 13 19 7 10 - - -
26/01:30pm - - - - - W 19 24 10 13 - - -
26/01:00pm - - - - - W 13 19 7 10 - - -
26/12:30pm - - - - - WSW 11 17 6 9 - - -
26/12:00pm - - - - - W 11 17 6 9 - - -
26/11:30am - - - - - W 11 17 6 9 - - -
26/11:00am - - - - - W 13 19 7 10 - - -
26/10:30am - - - - - WSW 13 19 7 10 - - -
26/10:00am - - - - - W 13 19 7 10 - - -
26/09:30am - - - - - W 13 17 7 9 - - -
26/09:00am - - - - - W 13 19 7 10 - - -
26/08:30am - - - - - W 13 19 7 10 - - -
26/08:00am - - - - - WNW 11 15 6 8 - - -
26/07:30am - - - - - WNW 9 13 5 7 - - -
26/07:00am - - - - - WNW 11 15 6 8 - - -
26/06:30am - - - - - WNW 13 15 7 8 - - -
26/06:00am - - - - - WNW 11 13 6 7 - - -
26/05:30am - - - - - WNW 9 13 5 7 - - -
26/05:00am - - - - - WNW 7 9 4 5 - - -
26/04:30am - - - - - WNW 11 13 6 7 - - -
26/04:00am - - - - - W 9 11 5 6 - - -
26/03:30am - - - - - WNW 7 9 4 5 - - -
26/03:00am - - - - - W 9 13 5 7 - - -
26/02:30am - - - - - W 9 13 5 7 - - -
26/02:00am - - - - - WNW 7 9 4 5 - - -
26/01:30am - - - - - WNW 7 11 4 6 - - -
26/01:00am - - - - - NNW 7 9 4 5 - - -
26/12:30am - - - - - NNE 13 30 7 16 - - -
26/12:00am - - - - - NE 11 19 6 10 - - -
 
Date/Time
EDT
Temp
°C
App
Temp
°C
Dew
Point
Rel
Hum
%
Delta-T
°C
Wind Press
QNH
hPa
Press
MSL
hPa
Rain
since 9 am
mm
Dir
 
Spd
km/h
Gust
km/h
Spd
kts
Gust
kts
25/11:30pm - - - - - NE 11 19 6 10 - - -
25/11:00pm - - - - - ENE 13 20 7 11 - - -
25/10:30pm - - - - - ENE 11 17 6 9 - - -
25/10:00pm - - - - - ENE 9 17 5 9 - - -

Other Formats:

Comma delimited format used in spreadsheet applications
http://www.bom.gov.au/fwo/IDN60801/IDN60801.94780.axf

JavaScript Object Notation format (JSON) in row-major order
http://www.bom.gov.au/fwo/IDN60801/IDN60801.94780.json